• Join FlightAware (Why Join?)
  • Login
  • US Flag 
07:51AM EDT


 

Airport Tracker/Info


-or-


 

Live Flight TrackerFlight Track Log ✈ UPS1121 ✈ 11-Jun-2013 ✈ KALB - KBDL

Flight Track Log - Related Links

Times and Time Zones

All times are in EDT time to prevent confusion due to time zone crossing. See the UPS1121 flight status page for this flight to view local times or setup timezone preferences in your user account.

Time Position Orientation Groundspeed Altitude Reporting Facility
EDT Latitude Longitude Course Direction KTS MPH feet Rate Location/Type
08:38PM 42.7483 -73.8197 260° West 139 160 1,800  Level Boston Center
08:39PM 42.7392 -73.8931 260° West 173 199 3,200 1,980 Climbing Boston Center
08:40PM 42.6664 -73.8831 174° South 212 244 6,900 2,520 Climbing Boston Center
08:41PM 42.6133 -73.7858 127° Southeast 225 259 9,800 1,860 Climbing Boston Center
08:42PM 42.5233 -73.6317 128° Southeast 334 384 11,000 600 Climbing Boston Center
08:43PM 42.4597 -73.5292 130° Southeast 391 450 11,000  Level Boston Center
08:44PM 42.4064 -73.4411 129° Southeast 393 452 11,000  Level Boston Center
08:44PM 42.3839 -73.4014 127° Southeast 396 456 11,000  Level Boston Center
08:45PM 42.3428 -73.3361 130° Southeast 395 455 11,000  Level Boston Center
08:45PM 42.3306 -73.2769 106° East 396 456 11,000 -180 Level Boston Center
08:46PM 42.3167 -73.1700 100° East 394 453 10,800 -600 Descending Boston Center
08:46PM 42.3169 -73.1447 89° East 377 434 10,400 -720 Descending Boston Center
08:47PM 42.3008 -73.0353 101° East 362 417 10,100 -1,020 Descending Boston Center
08:48PM 42.2869 -72.9144 99° East 327 376 8,700 -1,500 Descending Boston Center
08:49PM 42.2350 -72.8300 130° Southeast 319 367 7,300 -1,560 Descending Boston Center
08:50PM 42.1708 -72.7369 133° Southeast 308 354 5,600 -1,620 Descending Boston Center
08:51PM 42.1022 -72.6667 143° Southeast 305 351 3,900 -1,140 Descending Boston Center
08:52PM 42.0378 -72.6022 143° Southeast 277 319 3,300 -480 Descending Boston Center
08:53PM 41.9814 -72.5433 142° Southeast 247 284 3,000 -180 Descending Boston Center
08:54PM 41.9294 -72.4931 144° Southeast 250 288 3,000 -120 Level Boston Center
08:55PM 41.8689 -72.4456 150° Southeast 240 276 2,800 -240 Descending Boston Center
08:56PM 41.8211 -72.4958 218° Southwest 168 193 2,500 -300 Descending Boston Center